Time;durP1;ratioP1;P1;durP2;ratioP2;P2;SDS_P1;SDS_P2;PMS_P1;PMS_P2;Temp;Humidity;BMP_temperature;BMP_pressure;BME280_temperature;BME280_humidity;BME280_pressure;Samples;Min_cycle;Max_cycle;Signal;HPM_P1;HPM_P2
2022/08/03 00:01:35;;;;;;;7.28;2.50;;;20.10;99.90;;;;;;5002946;28;20038;-80
2022/08/03 00:04:00;;;;;;;6.68;3.00;;;20.10;99.90;;;;;;4975014;28;20056;-80
2022/08/03 00:06:26;;;;;;;7.25;2.78;;;20.10;99.90;;;;;;4955906;28;20039;-80
2022/08/03 00:08:52;;;;;;;8.85;2.55;;;20.10;99.90;;;;;;4984982;28;20053;-80
2022/08/03 00:11:18;;;;;;;7.63;3.03;;;20.10;99.90;;;;;;4980624;28;20065;-80
2022/08/03 00:13:44;;;;;;;7.05;3.00;;;20.10;99.90;;;;;;4984007;28;20049;-80
2022/08/03 00:16:10;;;;;;;6.72;2.67;;;20.10;99.90;;;;;;4984856;28;20077;-80
2022/08/03 00:18:36;;;;;;;7.32;2.83;;;20.10;99.90;;;;;;4985252;28;20049;-80
2022/08/03 00:21:03;;;;;;;8.48;3.10;;;20.10;99.90;;;;;;4982061;28;20058;-80
2022/08/03 00:23:28;;;;;;;8.25;3.03;;;20.00;99.90;;;;;;4982631;28;20897;-80
2022/08/03 00:25:54;;;;;;;6.45;2.75;;;20.00;99.90;;;;;;4980667;28;20048;-80
2022/08/03 00:28:20;;;;;;;10.75;2.85;;;20.00;99.90;;;;;;4980380;28;20483;-81
2022/08/03 00:30:46;;;;;;;8.38;2.97;;;20.00;99.90;;;;;;4982008;28;20053;-80
2022/08/03 00:33:11;;;;;;;6.03;2.70;;;20.00;99.90;;;;;;4996646;28;20061;-80
2022/08/03 00:35:37;;;;;;;8.15;2.83;;;20.00;99.90;;;;;;4966341;28;20041;-80
2022/08/03 00:38:04;;;;;;;6.15;2.58;;;20.00;99.90;;;;;;4988554;28;20733;-80
2022/08/03 00:40:29;;;;;;;8.38;3.17;;;20.00;99.90;;;;;;4982949;28;20479;-81
2022/08/03 00:42:57;;;;;;;6.63;2.95;;;20.00;99.90;;;;;;4997980;28;20091;-80
2022/08/03 00:45:32;;;;;;;8.52;3.50;;;20.00;99.90;;;;;;4990240;28;20128;-80
2022/08/03 00:47:59;;;;;;;6.18;2.80;;;20.00;99.90;;;;;;4971277;28;20518;-81
2022/08/03 00:50:27;;;;;;;10.70;2.83;;;19.90;99.90;;;;;;4996440;28;20049;-81
2022/08/03 00:52:55;;;;;;;7.57;3.15;;;19.90;99.90;;;;;;4998430;28;20486;-80
2022/08/03 00:55:22;;;;;;;5.68;2.63;;;19.90;99.90;;;;;;4991413;28;20050;-80
2022/08/03 00:57:48;;;;;;;10.20;3.33;;;19.90;99.90;;;;;;4985489;28;20042;-80
2022/08/03 01:00:17;;;;;;;8.38;2.97;;;19.90;99.90;;;;;;4981701;28;20049;-80
2022/08/03 01:02:43;;;;;;;10.10;3.15;;;19.80;99.90;;;;;;4983156;28;20057;-81
2022/08/03 01:05:09;;;;;;;7.30;2.50;;;19.80;99.90;;;;;;5001588;28;20195;-80
2022/08/03 01:08:13;;;;;;;10.60;3.13;;;19.80;99.90;;;;;;4985798;28;20042;-81
2022/08/03 01:11:22;;;;;;;8.27;3.00;;;19.80;99.90;;;;;;4996170;28;20038;-81
2022/08/03 01:14:25;;;;;;;6.60;2.80;;;19.80;99.90;;;;;;4987065;28;20051;-80
2022/08/03 01:16:58;;;;;;;7.47;3.10;;;19.80;99.90;;;;;;5000523;28;20046;-80
2022/08/03 01:19:27;;;;;;;9.30;3.35;;;19.70;99.90;;;;;;5010237;28;20050;-80
2022/08/03 01:22:21;;;;;;;7.07;3.00;;;19.70;99.90;;;;;;5012407;28;20045;-80
2022/08/03 01:25:07;;;;;;;7.68;3.05;;;19.70;99.90;;;;;;4996386;28;20058;-81
2022/08/03 01:27:48;;;;;;;;;;;19.70;99.90;;;;;;4996075;28;20038;-80
2022/08/03 01:30:14;;;;;;;5.90;2.97;;;19.60;99.90;;;;;;4998891;28;19933;-80
2022/08/03 01:32:54;;;;;;;10.30;3.30;;;19.60;99.90;;;;;;4980699;28;20406;-80
2022/08/03 01:35:45;;;;;;;8.48;3.20;;;19.60;99.90;;;;;;4995119;28;20037;-80
2022/08/03 01:38:39;;;;;;;7.85;2.90;;;19.60;99.90;;;;;;4979494;28;20096;-81
2022/08/03 01:41:11;;;;;;;8.15;3.10;;;19.60;99.90;;;;;;4979653;28;20061;-80
2022/08/03 01:43:41;;;;;;;6.65;2.50;;;19.60;99.90;;;;;;5001328;28;20050;-81
2022/08/03 01:46:08;;;;;;;8.73;3.00;;;19.60;99.90;;;;;;5001091;28;20049;-81
2022/08/03 01:48:36;;;;;;;8.77;2.90;;;19.60;99.90;;;;;;4987941;28;20397;-80
2022/08/03 01:51:03;;;;;;;7.80;3.50;;;19.60;99.90;;;;;;4989002;28;20053;-80
2022/08/03 01:53:32;;;;;;;8.13;2.70;;;19.60;99.90;;;;;;4985535;28;20074;-81
2022/08/03 01:56:01;;;;;;;7.30;3.00;;;19.60;99.90;;;;;;5017368;28;20380;-80
2022/08/03 01:58:28;;;;;;;8.57;2.72;;;19.60;99.90;;;;;;4984861;28;20050;-80
2022/08/03 02:00:59;;;;;;;6.63;2.72;;;19.60;99.90;;;;;;5007464;28;20038;-81
2022/08/03 02:03:27;;;;;;;6.88;2.88;;;19.60;99.90;;;;;;4987430;28;20068;-80
2022/08/03 02:05:54;;;;;;;9.98;2.90;;;19.60;99.90;;;;;;4985097;28;20556;-80
2022/08/03 02:08:23;;;;;;;8.45;3.03;;;19.60;99.90;;;;;;4982888;28;20045;-81
2022/08/03 02:10:50;;;;;;;9.23;3.00;;;19.60;99.90;;;;;;5000688;28;20144;-81
2022/08/03 02:13:17;;;;;;;6.95;3.40;;;19.50;99.90;;;;;;4985458;28;20049;-80
2022/08/03 02:15:43;;;;;;;7.55;3.10;;;19.90;99.90;;;;;;5000548;28;20069;-81
2022/08/03 02:18:10;;;;;;;7.97;2.92;;;19.50;99.90;;;;;;4999516;28;20565;-81
2022/08/03 02:20:37;;;;;;;10.63;3.28;;;19.50;99.90;;;;;;4971621;28;20053;-81
2022/08/03 02:23:05;;;;;;;9.75;3.22;;;19.50;99.90;;;;;;4957234;28;20132;-80
2022/08/03 02:25:33;;;;;;;9.05;3.30;;;19.60;99.90;;;;;;4987348;28;20849;-81
2022/08/03 02:28:15;;;;;;;9.93;2.80;;;19.50;99.90;;;;;;5000559;28;20066;-81
2022/08/03 02:30:44;;;;;;;9.02;2.85;;;19.60;99.90;;;;;;4998918;28;20046;-80
2022/08/03 02:33:21;;;;;;;10.80;2.78;;;19.50;99.90;;;;;;4998083;28;20046;-80
2022/08/03 02:35:50;;;;;;;10.23;3.10;;;19.50;99.90;;;;;;5000056;28;20049;-81
2022/08/03 02:38:19;;;;;;;10.63;3.75;;;19.40;99.90;;;;;;4991947;28;20430;-80
2022/08/03 02:40:45;;;;;;;7.97;2.88;;;19.40;99.90;;;;;;4988204;28;20579;-80
2022/08/03 02:43:16;;;;;;;7.80;2.53;;;19.40;99.90;;;;;;4989818;28;20855;-80
2022/08/03 02:45:47;;;;;;;10.23;2.75;;;19.40;99.90;;;;;;5006253;28;20054;-80
2022/08/03 02:48:21;;;;;;;6.95;2.67;;;19.40;99.90;;;;;;4999666;28;20402;-80
2022/08/03 02:50:50;;;;;;;9.73;2.80;;;19.40;99.90;;;;;;4985141;28;20372;-81
2022/08/03 02:53:17;;;;;;;11.23;3.17;;;19.40;99.90;;;;;;5002688;28;20378;-80
2022/08/03 02:55:45;;;;;;;7.55;2.78;;;19.40;99.90;;;;;;4989158;28;20042;-81
2022/08/03 02:58:13;;;;;;;9.10;2.80;;;19.40;99.90;;;;;;5001609;28;20049;-81
2022/08/03 03:00:40;;;;;;;12.27;3.13;;;19.40;99.90;;;;;;4999874;28;20606;-81
2022/08/03 03:03:06;;;;;;;9.15;3.10;;;19.40;99.90;;;;;;4988127;28;20123;-81
2022/08/03 03:05:35;;;;;;;8.25;2.80;;;19.40;99.90;;;;;;4983122;28;20049;-80
2022/08/03 03:08:01;;;;;;;6.45;2.40;;;19.50;99.90;;;;;;4997018;28;20041;-80
2022/08/03 03:10:28;;;;;;;7.68;2.50;;;19.50;99.90;;;;;;4983806;28;20053;-81
2022/08/03 03:12:56;;;;;;;6.22;2.35;;;19.50;99.90;;;;;;4997523;28;20091;-81
2022/08/03 03:15:27;;;;;;;8.90;3.03;;;19.50;99.90;;;;;;4986907;28;20111;-80
2022/08/03 03:17:53;;;;;;;9.48;2.92;;;19.50;99.90;;;;;;4984097;28;20057;-81
2022/08/03 03:20:20;;;;;;;8.18;2.47;;;19.50;99.90;;;;;;4991578;28;20050;-81
2022/08/03 03:22:48;;;;;;;9.45;2.70;;;19.50;99.90;;;;;;4974275;28;20128;-81
2022/08/03 03:25:15;;;;;;;9.57;2.72;;;19.50;99.90;;;;;;4989324;28;20343;-81
2022/08/03 03:27:41;;;;;;;7.20;2.55;;;19.50;99.90;;;;;;4986143;28;21113;-81
2022/08/03 03:30:08;;;;;;;9.70;2.78;;;19.00;99.90;;;;;;4982632;28;20072;-81
2022/08/03 03:32:35;;;;;;;7.32;2.55;;;19.50;99.90;;;;;;4982556;28;20046;-80
2022/08/03 03:35:03;;;;;;;10.63;3.13;;;19.40;99.90;;;;;;4968971;28;20080;-81
2022/08/03 03:37:29;;;;;;;9.52;2.70;;;19.40;99.90;;;;;;4999038;28;20045;-80
2022/08/03 03:39:55;;;;;;;8.35;2.72;;;19.40;99.90;;;;;;4973612;28;20049;-80
2022/08/03 03:42:21;;;;;;;11.48;3.10;;;19.40;99.90;;;;;;4978161;28;20116;-81
2022/08/03 03:44:47;;;;;;;7.68;3.05;;;19.40;99.90;;;;;;4999195;28;20107;-81
2022/08/03 03:47:13;;;;;;;10.65;3.00;;;19.40;99.90;;;;;;4965540;28;20442;-81
2022/08/03 03:49:40;;;;;;;7.80;2.90;;;19.40;99.90;;;;;;4997803;28;20081;-81
2022/08/03 03:52:06;;;;;;;9.18;2.60;;;19.30;99.90;;;;;;4972127;28;20053;-81
2022/08/03 03:54:42;;;;;;;9.75;2.90;;;19.30;99.90;;;;;;4973993;28;20104;-80
2022/08/03 03:57:11;;;;;;;9.80;3.00;;;19.30;99.90;;;;;;4987864;28;20053;-80
2022/08/03 03:59:40;;;;;;;7.90;3.08;;;19.20;99.90;;;;;;5001345;28;20063;-81
2022/08/03 04:02:07;;;;;;;6.95;2.50;;;19.30;99.90;;;;;;4985953;28;20057;-81
2022/08/03 04:13:19;;;;;;;10.95;3.05;;;19.20;99.90;;;;;;4987505;28;20352;-80
2022/08/03 04:15:47;;;;;;;9.65;3.17;;;19.20;99.90;;;;;;4987605;28;20056;-81
2022/08/03 04:18:14;;;;;;;10.18;3.08;;;19.60;99.90;;;;;;4981719;28;20045;-81
2022/08/03 04:20:45;;;;;;;10.80;3.22;;;19.30;99.90;;;;;;4995995;28;20503;-81
2022/08/03 04:23:15;;;;;;;11.45;3.38;;;19.30;99.90;;;;;;5011319;28;20054;-80
2022/08/03 04:25:42;;;;;;;9.63;3.30;;;19.30;99.90;;;;;;4995770;28;20060;-80
2022/08/03 04:28:10;;;;;;;8.48;3.05;;;19.30;99.90;;;;;;4987496;28;20557;-80
2022/08/03 04:30:37;;;;;;;13.02;2.97;;;19.30;99.90;;;;;;4994401;28;20080;-80
2022/08/03 04:33:05;;;;;;;8.93;3.08;;;19.30;99.90;;;;;;4987163;28;20050;-81
2022/08/03 04:35:33;;;;;;;11.45;3.42;;;19.30;99.90;;;;;;4982380;28;20330;-80
2022/08/03 04:38:06;;;;;;;8.80;2.80;;;19.30;99.90;;;;;;4998599;28;20048;-80
2022/08/03 04:40:38;;;;;;;11.40;3.30;;;19.30;99.90;;;;;;4971737;28;20128;-80
2022/08/03 04:43:05;;;;;;;8.77;2.92;;;19.30;99.90;;;;;;4984702;28;20583;-80
2022/08/03 04:45:32;;;;;;;11.52;3.30;;;19.40;99.90;;;;;;4980050;28;20403;-80
2022/08/03 04:47:59;;;;;;;11.88;3.20;;;19.40;99.90;;;;;;4982852;28;20052;-80
2022/08/03 04:50:26;;;;;;;11.85;3.60;;;19.40;99.90;;;;;;4982085;28;20071;-80
2022/08/03 04:52:53;;;;;;;9.50;3.13;;;19.40;99.90;;;;;;4971090;28;20060;-81
2022/08/03 04:55:26;;;;;;;10.70;3.22;;;19.40;99.90;;;;;;4981532;28;20136;-80
2022/08/03 04:57:52;;;;;;;11.35;3.20;;;19.50;99.90;;;;;;4969749;28;20049;-81
2022/08/03 05:00:18;;;;;;;10.07;3.08;;;19.50;99.90;;;;;;4971050;28;20045;-80
2022/08/03 05:02:43;;;;;;;13.40;3.35;;;19.50;99.90;;;;;;4971670;28;20375;-79
2022/08/03 05:05:10;;;;;;;8.48;3.08;;;19.50;99.90;;;;;;4970291;28;20165;-81
2022/08/03 05:07:36;;;;;;;8.65;2.92;;;19.50;99.90;;;;;;4964010;28;21739;-81
2022/08/03 05:10:05;;;;;;;9.60;2.97;;;19.60;99.90;;;;;;4961613;28;20171;-81
2022/08/03 05:12:30;;;;;;;8.73;2.88;;;19.60;99.90;;;;;;5013232;28;20050;-81
2022/08/03 05:14:56;;;;;;;10.05;3.17;;;19.60;99.90;;;;;;4986174;28;20053;-82
2022/08/03 05:17:22;;;;;;;11.27;3.75;;;19.60;99.90;;;;;;4962418;28;20696;-82
2022/08/03 05:19:48;;;;;;;10.10;2.78;;;19.70;99.90;;;;;;4987510;28;20053;-82
2022/08/03 05:22:13;;;;;;;12.93;3.50;;;19.70;99.90;;;;;;4955622;28;20076;-81
2022/08/03 05:24:40;;;;;;;15.35;3.50;;;19.70;99.90;;;;;;4986311;28;20073;-83
2022/08/03 05:27:06;;;;;;;7.63;2.67;;;19.70;99.90;;;;;;4956169;28;20041;-82
2022/08/03 05:29:32;;;;;;;10.88;3.08;;;19.80;99.90;;;;;;4986656;28;20046;-83
2022/08/03 05:31:57;;;;;;;9.60;3.05;;;19.80;99.90;;;;;;4981547;28;20046;-82
2022/08/03 05:34:23;;;;;;;12.18;3.30;;;19.80;99.90;;;;;;4983300;28;20124;-83
2022/08/03 05:36:49;;;;;;;9.65;3.20;;;19.80;99.90;;;;;;5000555;28;20060;-82
2022/08/03 05:39:14;;;;;;;10.52;3.15;;;19.90;99.90;;;;;;4987983;28;20064;-81
2022/08/03 05:41:40;;;;;;;9.65;3.33;;;19.90;99.90;;;;;;4964501;28;20044;-82
2022/08/03 05:44:06;;;;;;;10.05;3.00;;;20.00;99.90;;;;;;4993197;28;20314;-82
2022/08/03 05:46:32;;;;;;;7.22;3.13;;;20.00;99.90;;;;;;4974831;28;20054;-83
2022/08/03 05:48:57;;;;;;;11.93;3.28;;;20.10;99.90;;;;;;4987082;28;20497;-81
2022/08/03 05:51:23;;;;;;;11.45;3.10;;;20.10;99.90;;;;;;5000949;28;20076;-81
2022/08/03 05:53:49;;;;;;;12.38;3.63;;;20.10;99.90;;;;;;4973579;28;20048;-80
2022/08/03 05:56:23;;;;;;;9.88;3.13;;;20.20;99.90;;;;;;4987867;28;20045;-80
2022/08/03 05:58:50;;;;;;;11.82;3.20;;;20.20;99.90;;;;;;4974119;28;20048;-82
2022/08/03 06:01:16;;;;;;;6.88;2.70;;;20.30;99.90;;;;;;4975551;28;20129;-82
2022/08/03 06:03:45;;;;;;;11.65;3.22;;;20.30;99.90;;;;;;4986456;28;20073;-82
2022/08/03 06:06:11;;;;;;;12.20;2.83;;;20.40;99.90;;;;;;4988325;28;20049;-81
2022/08/03 06:08:37;;;;;;;12.82;4.05;;;20.50;99.90;;;;;;4990016;28;20100;-81
2022/08/03 06:11:03;;;;;;;10.77;3.08;;;20.50;99.90;;;;;;4998956;28;20097;-82
2022/08/03 06:13:29;;;;;;;8.68;3.03;;;20.50;99.90;;;;;;5002896;28;20459;-81
2022/08/03 06:15:55;;;;;;;16.33;3.22;;;20.60;99.90;;;;;;4956760;28;20057;-81
2022/08/03 06:18:20;;;;;;;9.10;3.35;;;20.60;99.90;;;;;;5000304;28;20373;-81
2022/08/03 06:20:46;;;;;;;11.20;3.42;;;20.70;99.90;;;;;;4983774;28;20293;-81
2022/08/03 06:23:12;;;;;;;11.75;2.95;;;20.80;99.90;;;;;;4968590;28;20057;-81
2022/08/03 06:25:37;;;;;;;11.70;3.22;;;20.80;99.90;;;;;;4974999;28;20129;-82
2022/08/03 06:28:04;;;;;;;11.63;3.33;;;20.90;99.90;;;;;;4983842;28;20041;-81
2022/08/03 06:30:29;;;;;;;11.82;2.72;;;20.90;99.90;;;;;;4998312;28;20147;-82
2022/08/03 06:32:55;;;;;;;11.27;3.63;;;21.00;99.90;;;;;;5005072;28;20056;-82
2022/08/03 06:35:21;;;;;;;11.55;3.03;;;21.10;99.90;;;;;;4982678;28;21013;-82
2022/08/03 06:37:49;;;;;;;13.80;3.20;;;21.10;99.90;;;;;;4975765;28;20053;-81
2022/08/03 06:40:17;;;;;;;12.60;3.00;;;21.10;99.90;;;;;;5003902;28;20084;-81
2022/08/03 06:42:43;;;;;;;11.25;2.92;;;21.00;99.90;;;;;;4985064;28;20099;-82
2022/08/03 06:45:10;;;;;;;8.50;2.97;;;21.20;99.90;;;;;;4988619;28;20061;-83
2022/08/03 06:47:37;;;;;;;11.25;3.33;;;21.30;99.90;;;;;;4994948;28;20430;-82
2022/08/03 06:50:04;;;;;;;9.13;3.25;;;21.40;99.90;;;;;;4992997;28;20050;-82
2022/08/03 06:52:30;;;;;;;11.00;3.20;;;21.20;99.90;;;;;;4980414;28;20053;-82
2022/08/03 06:54:57;;;;;;;11.93;3.17;;;21.60;99.90;;;;;;5002073;28;20522;-80
2022/08/03 06:57:23;;;;;;;10.70;3.20;;;21.60;99.90;;;;;;4990129;28;20049;-81
2022/08/03 06:59:49;;;;;;;11.63;3.13;;;21.60;99.90;;;;;;4977888;28;20455;-80
2022/08/03 07:02:15;;;;;;;16.48;3.72;;;21.60;99.90;;;;;;4994861;28;20095;-81
2022/08/03 07:04:40;;;;;;;13.20;3.17;;;21.70;99.90;;;;;;4994761;28;20053;-80
2022/08/03 07:07:06;;;;;;;11.38;2.92;;;21.70;99.90;;;;;;4978350;28;20186;-80
2022/08/03 07:09:32;;;;;;;13.85;3.78;;;21.90;99.90;;;;;;4970008;28;20053;-80
2022/08/03 07:11:58;;;;;;;13.38;3.47;;;22.00;99.90;;;;;;5003115;28;20053;-80
2022/08/03 07:14:24;;;;;;;18.70;3.55;;;22.00;99.90;;;;;;4987750;28;20060;-80
2022/08/03 07:16:49;;;;;;;10.15;3.25;;;22.10;99.90;;;;;;4995070;28;20065;-80
2022/08/03 07:19:15;;;;;;;9.43;3.33;;;22.10;99.90;;;;;;4985887;28;20049;-81
2022/08/03 07:21:41;;;;;;;10.82;3.75;;;22.20;99.90;;;;;;4987690;28;20451;-80
2022/08/03 07:24:06;;;;;;;12.40;3.22;;;21.50;99.90;;;;;;4962890;28;20049;-80
2022/08/03 07:26:32;;;;;;;10.77;3.50;;;22.50;99.90;;;;;;4994678;28;20061;-80
2022/08/03 07:28:59;;;;;;;13.52;3.67;;;22.40;99.90;;;;;;4991164;28;20049;-82
2022/08/03 07:31:25;;;;;;;10.82;3.65;;;22.60;99.90;;;;;;4973893;28;20564;-81
2022/08/03 07:33:51;;;;;;;11.43;3.72;;;22.70;99.90;;;;;;4992938;28;20116;-82
2022/08/03 07:36:17;;;;;;;13.07;3.90;;;22.80;99.90;;;;;;4976902;28;20077;-83
2022/08/03 07:38:43;;;;;;;12.93;3.33;;;23.00;99.90;;;;;;4973384;28;20048;-82
2022/08/03 07:41:08;;;;;;;10.65;3.80;;;23.10;99.90;;;;;;4970292;28;20096;-86
2022/08/03 07:43:34;;;;;;;16.20;3.97;;;23.30;99.90;;;;;;4974805;28;20623;-84
2022/08/03 07:46:00;;;;;;;12.90;3.58;;;23.40;99.90;;;;;;4982266;28;20050;-83
2022/08/03 07:48:25;;;;;;;9.82;3.17;;;23.60;99.90;;;;;;4967477;28;20038;-82
2022/08/03 07:50:51;;;;;;;11.68;3.47;;;23.70;99.90;;;;;;4989232;28;20054;-82
2022/08/03 07:53:17;;;;;;;13.50;3.53;;;23.70;99.90;;;;;;4975229;28;20045;-83
2022/08/03 07:55:43;;;;;;;14.93;4.38;;;23.80;99.90;;;;;;4981417;28;20045;-81
2022/08/03 07:58:17;;;;;;;12.32;4.40;;;23.90;99.90;;;;;;5004128;28;20103;-82
2022/08/03 08:00:43;;;;;;;15.02;4.40;;;23.90;99.90;;;;;;5002174;28;20049;-82
2022/08/03 08:03:11;;;;;;;14.70;4.00;;;24.10;99.90;;;;;;4985156;28;20671;-82
2022/08/03 08:05:36;;;;;;;8.57;3.28;;;24.20;99.90;;;;;;5002116;28;20041;-82
2022/08/03 08:08:03;;;;;;;9.82;3.10;;;24.40;99.90;;;;;;4984149;28;20115;-82
2022/08/03 08:10:31;;;;;;;10.43;3.63;;;24.50;99.90;;;;;;4976306;28;20472;-82
2022/08/03 08:12:57;;;;;;;14.35;3.67;;;24.60;99.90;;;;;;4993560;28;20053;-82
2022/08/03 08:15:23;;;;;;;11.80;3.53;;;24.60;99.90;;;;;;4985534;28;20045;-82
2022/08/03 08:17:54;;;;;;;10.35;3.20;;;24.60;99.90;;;;;;4990081;28;20041;-82
2022/08/03 08:20:25;;;;;;;10.77;3.65;;;24.70;99.90;;;;;;4993096;28;20134;-82
2022/08/03 08:22:51;;;;;;;10.38;3.40;;;24.90;99.90;;;;;;5001668;28;20045;-82
2022/08/03 08:25:17;;;;;;;12.07;3.80;;;25.10;99.90;;;;;;5000482;28;20060;-82
2022/08/03 08:27:46;;;;;;;10.88;3.35;;;25.20;99.90;;;;;;4977149;28;20391;-82
2022/08/03 08:30:13;;;;;;;10.43;3.58;;;25.40;99.90;;;;;;5000320;28;20546;-82
2022/08/03 08:32:38;;;;;;;12.05;3.70;;;25.50;99.90;;;;;;4985658;28;20088;-83
2022/08/03 08:35:05;;;;;;;14.40;3.95;;;25.70;99.90;;;;;;4985069;28;20073;-82
2022/08/03 08:37:32;;;;;;;9.80;3.03;;;25.70;99.90;;;;;;4984642;28;20053;-82
2022/08/03 08:39:58;;;;;;;13.50;3.70;;;26.20;99.90;;;;;;4984243;28;20057;-82
2022/08/03 08:42:25;;;;;;;13.52;3.65;;;25.70;99.90;;;;;;4984398;28;20443;-82
2022/08/03 08:44:51;;;;;;;14.65;3.85;;;25.60;99.90;;;;;;4986202;28;20482;-82
2022/08/03 08:47:23;;;;;;;13.63;3.22;;;25.40;99.90;;;;;;4999758;28;20056;-81
2022/08/03 08:49:52;;;;;;;11.77;3.35;;;25.30;99.90;;;;;;5000368;28;20042;-81
2022/08/03 08:52:23;;;;;;;13.02;3.75;;;25.30;99.90;;;;;;4984398;28;20046;-82
2022/08/03 08:54:50;;;;;;;11.85;3.70;;;25.30;99.90;;;;;;4986027;28;20073;-82
2022/08/03 08:57:17;;;;;;;18.00;3.63;;;25.20;99.90;;;;;;5000918;28;20050;-82
2022/08/03 08:59:43;;;;;;;14.18;3.63;;;25.10;99.90;;;;;;4985239;28;20057;-82
2022/08/03 09:02:09;;;;;;;9.82;3.55;;;25.20;99.90;;;;;;4985617;28;20041;-82
2022/08/03 09:04:38;;;;;;;10.60;3.53;;;25.10;99.90;;;;;;4991802;28;20633;-82
2022/08/03 09:07:04;;;;;;;10.35;3.58;;;25.10;99.90;;;;;;5000138;28;20045;-82
2022/08/03 09:09:32;;;;;;;10.63;3.72;;;25.10;99.90;;;;;;5000728;28;20053;-82
2022/08/03 09:11:58;;;;;;;10.55;3.38;;;25.00;99.90;;;;;;4977082;28;20095;-82
2022/08/03 09:14:24;;;;;;;14.07;3.20;;;25.00;99.90;;;;;;4989671;28;20048;-82
2022/08/03 09:17:04;;;;;;;13.30;3.75;;;25.00;99.90;;;;;;4977216;28;20045;-82
2022/08/03 09:19:32;;;;;;;14.15;3.58;;;25.00;99.90;;;;;;5000523;28;20049;-82
2022/08/03 09:22:15;;;;;;;14.13;3.55;;;24.90;99.90;;;;;;5017334;28;20046;-82
2022/08/03 09:25:00;;;;;;;12.10;3.78;;;24.90;99.90;;;;;;5002041;28;20133;-84
2022/08/03 09:27:26;;;;;;;10.88;3.78;;;25.00;99.90;;;;;;4990877;28;20076;-85
2022/08/03 09:29:53;;;;;;;15.02;3.95;;;25.00;99.90;;;;;;4969482;28;20147;-83
2022/08/03 09:32:21;;;;;;;15.32;4.18;;;25.00;99.90;;;;;;4990823;28;20041;-83
2022/08/03 09:34:53;;;;;;;16.20;3.90;;;25.20;99.90;;;;;;4966009;28;20056;-84
2022/08/03 09:37:21;;;;;;;15.45;4.00;;;25.10;99.90;;;;;;4998888;28;20087;-84
2022/08/03 09:39:47;;;;;;;14.18;3.80;;;25.30;99.90;;;;;;4969700;28;20049;-82
2022/08/03 09:42:18;;;;;;;10.00;3.83;;;25.50;99.90;;;;;;4990611;28;20073;-84
2022/08/03 09:44:49;;;;;;;13.13;3.67;;;25.60;99.90;;;;;;4997505;28;20149;-83
2022/08/03 09:47:29;;;;;;;15.00;3.92;;;25.80;99.90;;;;;;5000850;28;20042;-84
2022/08/03 09:50:06;;;;;;;11.50;3.50;;;25.80;99.90;;;;;;5002041;28;20057;-84
2022/08/03 09:52:34;;;;;;;11.85;3.83;;;25.70;99.90;;;;;;4992958;28;20061;-85
2022/08/03 09:55:01;;;;;;;12.88;3.67;;;25.70;99.90;;;;;;4992212;28;20046;-85
2022/08/03 09:57:31;;;;;;;13.75;3.72;;;25.80;99.90;;;;;;5000521;28;20506;-84
2022/08/03 10:00:10;;;;;;;17.23;4.22;;;25.80;99.90;;;;;;4999880;28;20499;-84
2022/08/03 10:02:36;;;;;;;13.13;3.92;;;25.80;99.90;;;;;;4998419;28;20048;-83
2022/08/03 10:05:03;;;;;;;14.60;4.00;;;25.80;99.90;;;;;;5002648;28;20415;-84
2022/08/03 10:07:29;;;;;;;17.35;4.35;;;26.40;99.90;;;;;;4983071;28;20052;-84
2022/08/03 10:10:00;;;;;;;16.48;4.80;;;26.20;99.90;;;;;;4968353;28;20046;-84
2022/08/03 10:12:26;;;;;;;13.05;3.78;;;26.40;99.90;;;;;;4969664;28;20042;-84
2022/08/03 10:14:53;;;;;;;15.93;4.75;;;26.20;99.90;;;;;;4993326;28;20049;-83
2022/08/03 10:17:20;;;;;;;14.10;4.00;;;26.00;99.90;;;;;;5006292;28;20053;-83
2022/08/03 10:19:46;;;;;;;13.18;4.70;;;25.80;99.90;;;;;;5001887;28;20049;-84
2022/08/03 10:22:15;;;;;;;12.70;4.00;;;25.80;99.90;;;;;;4987229;28;20115;-83
2022/08/03 10:25:01;;;;;;;11.50;4.22;;;25.70;99.90;;;;;;5004771;28;20053;-83
2022/08/03 10:27:32;;;;;;;13.40;3.78;;;26.10;99.90;;;;;;4993061;28;20511;-82
2022/08/03 10:30:03;;;;;;;14.43;4.28;;;26.10;99.90;;;;;;4994005;28;20053;-82
2022/08/03 10:32:51;;;;;;;11.95;3.95;;;26.40;99.90;;;;;;4993214;28;20133;-83
2022/08/03 10:35:22;;;;;;;12.60;3.85;;;26.30;99.90;;;;;;5005502;28;20058;-84
2022/08/03 10:37:54;;;;;;;10.10;3.70;;;26.30;99.90;;;;;;4979514;28;20042;-85
2022/08/03 10:40:22;;;;;;;10.77;3.78;;;26.30;99.90;;;;;;4989250;28;20049;-85
2022/08/03 10:42:53;;;;;;;9.98;3.40;;;26.30;99.90;;;;;;4978624;28;20064;-84
2022/08/03 10:45:24;;;;;;;10.07;3.00;;;26.30;99.90;;;;;;4992102;28;20432;-81
2022/08/03 10:47:51;;;;;;;14.75;3.72;;;26.40;99.90;;;;;;5004541;28;20042;-82
2022/08/03 10:50:18;;;;;;;11.45;3.40;;;26.60;99.90;;;;;;4998695;28;20057;-82
2022/08/03 10:52:59;;;;;;;12.02;3.65;;;26.80;99.90;;;;;;4986972;28;20159;-81
2022/08/03 10:58:37;;;;;;;10.25;3.42;;;26.90;99.90;;;;;;4987488;28;20129;-81
2022/08/03 11:01:04;;;;;;;9.90;3.53;;;26.90;99.90;;;;;;5002063;28;20050;-81
2022/08/03 11:03:31;;;;;;;14.18;4.00;;;26.90;99.90;;;;;;5003115;28;20243;-81
2022/08/03 11:06:20;;;;;;;9.80;3.17;;;27.00;99.90;;;;;;5000888;28;20041;-81
2022/08/03 11:08:47;;;;;;;14.60;3.92;;;26.80;99.90;;;;;;4992696;28;20495;-81
2022/08/03 11:11:16;;;;;;;11.38;3.65;;;26.70;99.90;;;;;;4986419;28;20085;-83
2022/08/03 11:14:07;;;;;;;7.85;3.20;;;26.50;99.90;;;;;;4987162;28;20433;-81
2022/08/03 11:16:39;;;;;;;14.82;3.83;;;26.40;99.90;;;;;;4986860;28;20944;-82
2022/08/03 11:19:08;;;;;;;13.13;3.50;;;26.40;99.90;;;;;;4994502;28;20046;-82
2022/08/03 11:24:53;;;;;;;10.45;2.97;;;26.60;99.90;;;;;;5004379;28;20056;-83
2022/08/03 11:27:19;;;;;;;10.43;3.17;;;26.60;99.90;;;;;;4990602;28;20049;-79
2022/08/03 11:30:05;;;;;;;12.50;3.50;;;26.60;99.90;;;;;;4991615;28;20045;-83
2022/08/03 11:32:38;;;;;;;14.48;3.83;;;26.50;99.90;;;;;;5000907;28;20061;-82
2022/08/03 11:35:08;;;;;;;11.30;2.90;;;26.50;99.90;;;;;;5001966;28;20061;-82
2022/08/03 11:37:35;;;;;;;11.02;3.30;;;26.40;99.90;;;;;;5000251;28;20282;-83
2022/08/03 11:40:01;;;;;;;12.07;3.00;;;26.40;99.90;;;;;;5002612;28;20064;-82
2022/08/03 11:42:27;;;;;;;10.43;3.22;;;26.40;99.90;;;;;;5001208;28;20443;-81
2022/08/03 11:44:54;;;;;;;9.77;3.03;;;26.30;99.90;;;;;;4984654;28;20103;-82
2022/08/03 11:47:24;;;;;;;10.30;3.40;;;26.40;99.90;;;;;;4984856;28;20054;-81
2022/08/03 11:49:52;;;;;;;8.85;2.90;;;26.40;99.90;;;;;;4986051;28;20053;-81
2022/08/03 11:52:18;;;;;;;10.65;2.85;;;26.60;99.90;;;;;;4993737;28;20050;-81
2022/08/03 11:54:44;;;;;;;10.35;2.80;;;26.70;99.90;;;;;;4969351;28;20653;-82
2022/08/03 11:57:11;;;;;;;7.93;2.50;;;26.90;99.90;;;;;;5003923;28;20081;-82
2022/08/03 11:59:38;;;;;;;10.63;3.22;;;27.00;99.90;;;;;;5002841;28;20077;-82
2022/08/03 12:02:07;;;;;;;15.10;3.55;;;26.80;99.90;;;;;;4986313;28;20145;-81
2022/08/03 12:04:49;;;;;;;8.70;2.75;;;26.70;99.90;;;;;;5001234;28;20132;-82
2022/08/03 12:07:16;;;;;;;9.45;3.15;;;26.90;99.90;;;;;;5002197;28;20417;-83
2022/08/03 12:09:42;;;;;;;9.07;2.78;;;26.90;99.90;;;;;;4978896;28;20260;-83
2022/08/03 12:12:08;;;;;;;10.10;2.85;;;27.00;99.90;;;;;;4979199;28;20053;-83
2022/08/03 12:14:34;;;;;;;12.30;3.10;;;27.20;99.90;;;;;;5009376;28;20046;-83
2022/08/03 12:17:00;;;;;;;7.53;2.80;;;27.00;99.90;;;;;;4978518;28;20080;-82
2022/08/03 12:19:26;;;;;;;11.98;3.45;;;27.40;99.90;;;;;;5003220;28;20093;-84
2022/08/03 12:21:52;;;;;;;10.93;2.95;;;27.30;99.90;;;;;;4978336;28;20058;-83
2022/08/03 12:24:17;;;;;;;7.15;2.80;;;27.30;99.90;;;;;;5002492;28;20149;-84
2022/08/03 12:26:50;;;;;;;7.88;2.50;;;27.10;99.90;;;;;;4993642;28;20046;-83
2022/08/03 12:29:20;;;;;;;10.35;2.58;;;27.10;99.90;;;;;;4993766;28;20049;-84
2022/08/03 12:31:47;;;;;;;8.07;2.35;;;27.30;99.90;;;;;;4993047;28;20041;-83
2022/08/03 12:34:13;;;;;;;7.03;2.58;;;27.40;99.90;;;;;;5002401;28;20055;-83
2022/08/03 12:36:51;;;;;;;11.27;2.92;;;27.40;99.90;;;;;;4984615;28;20046;-84
2022/08/03 12:39:21;;;;;;;9.27;2.38;;;27.30;99.90;;;;;;4987154;28;20049;-84
2022/08/03 12:41:52;;;;;;;8.80;2.50;;;27.40;99.90;;;;;;5001033;28;20136;-84
2022/08/03 12:44:31;;;;;;;8.90;2.50;;;27.40;99.90;;;;;;5000887;28;20136;-85
2022/08/03 12:46:58;;;;;;;6.82;2.30;;;27.50;99.90;;;;;;5003184;28;20132;-84
2022/08/03 12:49:24;;;;;;;10.75;3.25;;;27.40;99.90;;;;;;4982310;28;20053;-84
2022/08/03 12:51:50;;;;;;;8.80;2.80;;;27.50;99.90;;;;;;4977823;28;20179;-83
2022/08/03 12:54:21;;;;;;;7.72;2.70;;;27.30;99.90;;;;;;4985297;28;20068;-83
2022/08/03 12:57:16;;;;;;;11.77;2.72;;;27.40;99.90;;;;;;5018465;28;20042;-83
2022/08/03 12:59:47;;;;;;;11.75;3.20;;;27.60;99.90;;;;;;4967563;28;20075;-83
2022/08/03 13:02:20;;;;;;;7.65;2.92;;;27.50;99.90;;;;;;5002052;28;20085;-83
2022/08/03 13:04:50;;;;;;;13.15;3.55;;;27.30;99.90;;;;;;4971946;28;20048;-83